Time;durP1;ratioP1;P1;durP2;ratioP2;P2;SDS_P1;SDS_P2;PMS_P1;PMS_P2;Temp;Humidity;BMP_temperature;BMP_pressure;BME280_temperature;BME280_humidity;BME280_pressure;Samples;Min_cycle;Max_cycle;Signal;HPM_P1;HPM_P2
2022/01/22 00:00:01;;;;;;;4.32;0.80;;;20.00;45.10;;;;;;4995074;28;20054;-87
2022/01/22 00:02:26;;;;;;;3.20;0.95;;;20.10;45.80;;;;;;4977894;28;20581;-87
2022/01/22 00:04:52;;;;;;;3.33;1.00;;;21.30;45.80;;;;;;4994896;28;20062;-87
2022/01/22 00:07:17;;;;;;;4.60;1.02;;;20.00;45.10;;;;;;4994632;28;20096;-87
2022/01/22 00:09:50;;;;;;;4.68;0.95;;;20.00;45.10;;;;;;4993748;28;20084;-87
2022/01/22 00:12:28;;;;;;;3.88;1.45;;;20.00;45.20;;;;;;4994991;28;20065;-87
2022/01/22 00:14:54;;;;;;;3.15;0.88;;;20.00;45.20;;;;;;4994361;28;20041;-87
2022/01/22 00:17:19;;;;;;;3.50;0.82;;;20.00;45.20;;;;;;5011926;28;20053;-87
2022/01/22 00:19:45;;;;;;;3.00;0.80;;;19.90;45.20;;;;;;4994558;28;20136;-87
2022/01/22 00:22:10;;;;;;;2.72;0.90;;;19.90;45.20;;;;;;4992758;28;20619;-87
2022/01/22 00:24:38;;;;;;;3.33;1.00;;;19.90;45.20;;;;;;4993555;28;20545;-87
2022/01/22 00:27:05;;;;;;;4.43;1.00;;;19.90;45.20;;;;;;4994294;28;20478;-87
2022/01/22 00:29:30;;;;;;;3.38;0.90;;;19.90;45.90;;;;;;4993188;28;20104;-87
2022/01/22 00:31:59;;;;;;;2.65;0.70;;;20.30;45.50;;;;;;4994658;28;20438;-87
2022/01/22 00:34:24;;;;;;;2.67;0.70;;;19.90;45.30;;;;;;4994341;28;20045;-87
2022/01/22 00:36:50;;;;;;;2.95;0.80;;;19.90;45.30;;;;;;4993531;28;20045;-87
2022/01/22 00:39:15;;;;;;;3.58;0.98;;;19.90;45.30;;;;;;4993868;28;20056;-87
2022/01/22 00:41:41;;;;;;;3.00;0.68;;;19.90;45.40;;;;;;4994274;28;20038;-88
2022/01/22 00:44:06;;;;;;;2.53;0.68;;;19.80;45.30;;;;;;4993525;28;20053;-87
2022/01/22 00:46:32;;;;;;;3.35;0.82;;;19.80;45.30;;;;;;4994202;28;20050;-88
2022/01/22 00:48:58;;;;;;;2.75;0.80;;;19.80;45.30;;;;;;4994074;28;20060;-87
2022/01/22 00:51:23;;;;;;;3.00;0.90;;;19.80;45.30;;;;;;4993204;28;20611;-88
2022/01/22 00:53:49;;;;;;;3.72;1.05;;;19.80;45.40;;;;;;4994051;28;20108;-87
2022/01/22 00:56:14;;;;;;;3.13;0.70;;;19.80;45.40;;;;;;4994076;28;20474;-88
2022/01/22 00:58:40;;;;;;;2.42;0.80;;;19.80;45.40;;;;;;4993188;28;20464;-87
2022/01/22 01:01:05;;;;;;;2.53;0.73;;;19.70;45.40;;;;;;4993523;28;20046;-87
2022/01/22 01:03:33;;;;;;;2.38;0.85;;;19.70;45.40;;;;;;4994092;28;20136;-86
2022/01/22 01:06:00;;;;;;;3.50;0.82;;;19.70;45.40;;;;;;4992510;28;20473;-87
2022/01/22 01:08:27;;;;;;;2.90;0.70;;;19.70;45.50;;;;;;4997292;28;20054;-87
2022/01/22 01:10:53;;;;;;;2.70;0.63;;;19.70;45.50;;;;;;4974190;28;20518;-88
2022/01/22 01:13:19;;;;;;;2.20;0.70;;;19.70;45.50;;;;;;4973439;28;20081;-87
2022/01/22 01:15:58;;;;;;;1.38;0.57;;;19.70;45.50;;;;;;4974290;28;20058;-87
2022/01/22 01:32:16;;;;;;;2.53;0.52;;;19.60;45.60;;;;;;4974018;28;20058;-87
2022/01/22 01:34:44;;;;;;;2.67;0.60;;;19.60;45.50;;;;;;4972754;28;20057;-87
2022/01/22 01:37:12;;;;;;;2.65;0.65;;;19.60;45.60;;;;;;4989835;28;20074;-87
2022/01/22 01:39:39;;;;;;;1.75;0.50;;;19.60;45.60;;;;;;4973232;28;20049;-87
2022/01/22 01:42:09;;;;;;;1.73;0.40;;;19.60;45.60;;;;;;4990498;28;20141;-87
2022/01/22 01:44:35;;;;;;;1.50;0.50;;;19.60;45.60;;;;;;4973355;28;20626;-87
2022/01/22 01:47:01;;;;;;;1.88;0.50;;;19.60;45.60;;;;;;4972557;28;20058;-87
2022/01/22 01:49:27;;;;;;;2.03;0.57;;;19.60;45.60;;;;;;4973638;28;20061;-87
2022/01/22 01:51:55;;;;;;;2.13;0.50;;;19.50;45.60;;;;;;4973472;28;20390;-87
2022/01/22 01:54:31;;;;;;;1.27;0.43;;;19.50;46.30;;;;;;4990144;28;20050;-90
2022/01/22 01:59:42;;;;;;;2.50;0.60;;;19.50;45.60;;;;;;4973023;28;20508;-88
2022/01/22 02:02:08;;;;;;;2.45;0.70;;;19.50;45.60;;;;;;4972671;28;20403;-87
2022/01/22 02:04:34;;;;;;;2.13;0.60;;;19.50;45.70;;;;;;4973095;28;20622;-87
2022/01/22 02:06:59;;;;;;;1.65;0.50;;;19.50;45.70;;;;;;4973085;28;20482;-87
2022/01/22 02:09:25;;;;;;;1.25;0.30;;;19.50;45.70;;;;;;4972358;28;20394;-87
2022/01/22 02:12:04;;;;;;;3.22;0.47;;;19.50;45.70;;;;;;4956383;28;20061;-87
2022/01/22 02:25:18;;;;;;;1.95;0.50;;;19.40;45.70;;;;;;4959229;28;20129;-87
2022/01/22 02:27:44;;;;;;;1.17;0.40;;;19.40;45.70;;;;;;4972526;28;20129;-87
2022/01/22 02:30:17;;;;;;;1.90;0.50;;;19.40;45.70;;;;;;4972030;28;20457;-87
2022/01/22 02:35:31;;;;;;;1.92;0.63;;;19.40;45.80;;;;;;4973173;28;20132;-87
2022/01/22 02:38:06;;;;;;;2.33;0.50;;;19.40;45.80;;;;;;4972252;28;20530;-87
2022/01/22 02:40:40;;;;;;;1.90;0.43;;;19.40;45.80;;;;;;4972511;28;20125;-87
2022/01/22 02:43:06;;;;;;;1.52;0.45;;;19.30;45.80;;;;;;4972311;28;20404;-87
2022/01/22 02:45:32;;;;;;;1.92;0.50;;;19.30;45.80;;;;;;4972348;28;20058;-87
2022/01/22 02:47:58;;;;;;;1.58;0.40;;;19.30;45.80;;;;;;4989881;28;20418;-87
2022/01/22 02:50:23;;;;;;;1.42;0.40;;;19.30;45.80;;;;;;4983565;28;20054;-86
2022/01/22 02:52:49;;;;;;;1.70;0.50;;;19.30;45.80;;;;;;5006503;28;20062;-87
2022/01/22 02:55:15;;;;;;;1.20;0.40;;;19.30;45.80;;;;;;5001756;28;20057;-87
2022/01/22 02:57:43;;;;;;;2.75;0.50;;;19.30;45.90;;;;;;5007754;28;20057;-87
2022/01/22 03:00:11;;;;;;;1.75;0.40;;;19.30;45.90;;;;;;5000916;28;20046;-87
2022/01/22 03:02:38;;;;;;;2.53;0.40;;;19.30;45.90;;;;;;5008369;28;20116;-87
2022/01/22 03:05:05;;;;;;;1.60;0.60;;;19.30;45.90;;;;;;5007280;28;20136;-87
2022/01/22 03:07:30;;;;;;;1.35;0.40;;;19.30;45.90;;;;;;4991682;28;20050;-87
2022/01/22 03:10:01;;;;;;;1.63;0.50;;;19.30;45.90;;;;;;5008344;28;20070;-87
2022/01/22 03:27:25;;;;;;;1.42;0.35;;;19.20;45.90;;;;;;5007101;28;20073;-87
2022/01/22 03:29:51;;;;;;;0.75;0.22;;;19.20;45.90;;;;;;5011599;28;20694;-87
2022/01/22 03:32:17;;;;;;;1.67;0.32;;;19.20;45.90;;;;;;5005425;28;20049;-87
2022/01/22 03:34:54;;;;;;;1.90;0.57;;;19.20;45.90;;;;;;5010994;28;20042;-88
2022/01/22 03:37:20;;;;;;;1.88;0.50;;;19.20;45.90;;;;;;5005888;28;20542;-87
2022/01/22 03:39:45;;;;;;;1.17;0.30;;;19.20;45.90;;;;;;5011151;28;20048;-87
2022/01/22 03:42:11;;;;;;;1.42;0.40;;;19.20;45.90;;;;;;5004662;28;20053;-87
2022/01/22 03:44:36;;;;;;;1.45;0.47;;;19.20;46.00;;;;;;5011702;28;20050;-87
2022/01/22 03:47:02;;;;;;;1.38;0.35;;;19.20;46.00;;;;;;5010657;28;20056;-87
2022/01/22 03:49:28;;;;;;;1.23;0.30;;;19.20;46.00;;;;;;5011455;28;20087;-87
2022/01/22 03:51:53;;;;;;;0.93;0.35;;;19.20;46.00;;;;;;5011335;28;20045;-86
2022/01/22 03:54:19;;;;;;;1.27;0.40;;;19.20;46.00;;;;;;5004875;28;20139;-87
2022/01/22 03:56:46;;;;;;;2.17;0.40;;;19.20;46.10;;;;;;5011412;28;20091;-86
2022/01/22 03:59:13;;;;;;;1.27;0.35;;;19.20;46.00;;;;;;5004297;28;20046;-86
2022/01/22 04:04:24;;;;;;;1.10;0.20;;;19.20;46.00;;;;;;5005268;28;20061;-87
2022/01/22 04:07:24;;;;;;;1.00;0.20;;;19.10;45.90;;;;;;5014233;28;20049;-87
2022/01/22 04:09:42;;;;;;;0.88;0.20;;;19.20;46.00;;;;;;5010653;28;20064;-87
2022/01/22 04:12:10;;;;;;;0.70;0.17;;;20.30;46.60;;;;;;5014355;28;20053;-87
2022/01/22 04:14:37;;;;;;;1.40;0.30;;;19.20;46.00;;;;;;5013940;28;20140;-86
2022/01/22 04:17:20;;;;;;;1.30;0.30;;;19.20;46.00;;;;;;5014661;28;20477;-88
2022/01/22 04:25:20;;;;;;;1.15;0.38;;;19.10;46.00;;;;;;5013820;28;20053;-85
2022/01/22 04:27:48;;;;;;;0.38;0.17;;;19.10;46.00;;;;;;5013861;28;20053;-87
2022/01/22 04:30:13;;;;;;;1.00;0.25;;;19.10;46.00;;;;;;5013197;28;20101;-87
2022/01/22 04:32:39;;;;;;;0.90;0.20;;;19.10;46.00;;;;;;5013868;28;20057;-87
2022/01/22 04:35:05;;;;;;;1.30;0.20;;;19.10;46.10;;;;;;5013254;28;20060;-87
2022/01/22 04:37:30;;;;;;;1.05;0.20;;;19.10;46.10;;;;;;5013180;28;20053;-87
2022/01/22 04:39:56;;;;;;;0.60;0.20;;;19.80;46.40;;;;;;5013967;28;20049;-87
2022/01/22 04:42:22;;;;;;;0.65;0.22;;;19.10;46.10;;;;;;5013595;28;20053;-87
2022/01/22 04:45:03;;;;;;;0.63;0.20;;;19.10;46.10;;;;;;5012985;28;20053;-87
2022/01/22 04:47:41;;;;;;;0.68;0.20;;;19.10;46.10;;;;;;5013515;28;20045;-87
2022/01/22 04:55:35;;;;;;;1.42;0.30;;;19.10;46.10;;;;;;5013386;28;20054;-86
2022/01/22 04:58:03;;;;;;;1.42;0.20;;;19.00;46.10;;;;;;5012520;28;20057;-87
2022/01/22 05:00:36;;;;;;;0.80;0.20;;;19.00;46.10;;;;;;5013131;28;20047;-87
2022/01/22 05:03:02;;;;;;;1.63;0.20;;;19.00;46.10;;;;;;5013456;28;20049;-87
2022/01/22 05:05:28;;;;;;;1.00;0.20;;;20.10;46.70;;;;;;5012184;28;20053;-87
2022/01/22 05:07:53;;;;;;;1.23;0.20;;;19.00;46.10;;;;;;5013051;28;20087;-87
2022/01/22 05:10:19;;;;;;;0.55;0.20;;;19.00;46.10;;;;;;5013569;28;20152;-87
2022/01/22 05:12:44;;;;;;;0.70;0.10;;;19.00;46.10;;;;;;5012918;28;20049;-86
2022/01/22 05:15:10;;;;;;;0.50;0.20;;;19.00;46.10;;;;;;5013353;28;20045;-86
2022/01/22 05:17:39;;;;;;;0.55;0.17;;;19.00;46.10;;;;;;5013268;28;20119;-87
2022/01/22 05:20:11;;;;;;;0.43;0.10;;;19.00;46.20;;;;;;5012577;28;20056;-87
2022/01/22 05:25:06;;;;;;;0.75;0.20;;;19.00;46.10;;;;;;5012135;28;20132;-87
2022/01/22 05:38:20;;;;;;;0.85;0.10;;;19.10;46.30;;;;;;5012687;28;20049;-87
2022/01/22 05:40:46;;;;;;;0.88;0.10;;;19.20;46.40;;;;;;4990950;28;20045;-87
2022/01/22 05:43:11;;;;;;;0.75;0.20;;;19.20;46.40;;;;;;4973432;28;20041;-88
2022/01/22 05:45:37;;;;;;;1.02;0.20;;;19.20;46.30;;;;;;4989939;28;20093;-88
2022/01/22 05:48:03;;;;;;;1.25;0.20;;;19.20;46.30;;;;;;4972114;28;20101;-88
2022/01/22 05:52:58;;;;;;;0.50;0.10;;;19.20;46.30;;;;;;5001484;28;20089;-88
2022/01/22 05:55:41;;;;;;;0.90;0.30;;;19.30;46.30;;;;;;5011898;28;20577;-88
2022/01/22 06:00:52;;;;;;;1.13;0.30;;;19.30;46.30;;;;;;5011447;28;20080;-88
2022/01/22 06:03:18;;;;;;;0.77;0.10;;;19.30;46.30;;;;;;5012400;28;20841;-88
2022/01/22 06:05:43;;;;;;;0.50;0.10;;;19.30;46.20;;;;;;5011958;28;20050;-88
2022/01/22 06:08:10;;;;;;;1.42;0.30;;;19.30;46.20;;;;;;5011566;28;20056;-88
2022/01/22 06:10:40;;;;;;;0.20;0.10;;;19.30;46.20;;;;;;5011967;28;20041;-87
2022/01/22 06:13:18;;;;;;;0.95;0.43;;;19.40;46.30;;;;;;5012208;28;20080;-88
2022/01/22 06:15:43;;;;;;;0.28;0.10;;;19.40;46.20;;;;;;5011654;28;20057;-88
2022/01/22 06:18:09;;;;;;;0.52;0.10;;;19.40;46.30;;;;;;5012059;28;20433;-88
2022/01/22 06:20:35;;;;;;;0.40;0.10;;;19.40;46.20;;;;;;4999392;28;20119;-87
2022/01/22 06:23:01;;;;;;;0.52;0.13;;;19.50;46.30;;;;;;5011128;28;20048;-88
2022/01/22 06:25:27;;;;;;;0.43;0.10;;;19.40;46.20;;;;;;5012064;28;20104;-88
2022/01/22 06:27:52;;;;;;;0.28;0.08;;;19.50;46.20;;;;;;5011751;28;20504;-88
2022/01/22 06:30:19;;;;;;;0.13;0.00;;;19.50;46.20;;;;;;5013597;28;20052;-88
2022/01/22 06:32:45;;;;;;;0.75;0.10;;;19.80;46.40;;;;;;5031399;28;20045;-88
2022/01/22 06:35:11;;;;;;;0.70;0.20;;;19.50;46.20;;;;;;5027334;28;20067;-88
2022/01/22 06:37:37;;;;;;;0.30;0.03;;;19.50;46.20;;;;;;5011591;28;20053;-89
2022/01/22 06:42:30;;;;;;;0.52;0.10;;;19.60;46.30;;;;;;5046286;28;20055;-88
2022/01/22 06:44:56;;;;;;;0.43;0.10;;;19.60;46.20;;;;;;5018348;28;20073;-87
2022/01/22 06:47:22;;;;;;;0.40;0.10;;;19.60;46.20;;;;;;5021121;28;20049;-88
2022/01/22 06:49:47;;;;;;;0.45;0.10;;;19.60;46.20;;;;;;5029034;28;20055;-87
2022/01/22 06:52:13;;;;;;;0.57;0.10;;;19.60;46.20;;;;;;5015922;28;20061;-88
2022/01/22 06:54:39;;;;;;;0.52;0.10;;;19.70;46.20;;;;;;5031300;28;20106;-88
2022/01/22 06:57:05;;;;;;;0.15;0.03;;;19.70;46.20;;;;;;5030585;28;20385;-87
2022/01/22 06:59:30;;;;;;;0.32;0.05;;;19.70;46.20;;;;;;5031142;28;20056;-88
2022/01/22 07:01:56;;;;;;;0.30;0.10;;;19.70;46.20;;;;;;5030562;28;20040;-87
2022/01/22 07:04:22;;;;;;;0.28;0.00;;;19.70;46.20;;;;;;5020681;28;20081;-88
2022/01/22 07:06:48;;;;;;;0.10;0.00;;;19.80;46.20;;;;;;5011770;28;20137;-88
2022/01/22 07:09:13;;;;;;;0.10;0.08;;;19.80;46.20;;;;;;5011527;28;20516;-88
2022/01/22 07:11:39;;;;;;;0.20;0.00;;;19.80;46.20;;;;;;5010863;28;20807;-88
2022/01/22 07:14:04;;;;;;;0.40;0.10;;;19.80;46.20;;;;;;5011517;28;20049;-89
2022/01/22 07:16:30;;;;;;;0.47;0.10;;;19.80;46.10;;;;;;5011428;28;20103;-88
2022/01/22 07:19:00;;;;;;;0.20;0.00;;;19.90;46.20;;;;;;5011418;28;20124;-88
2022/01/22 07:21:29;;;;;;;0.30;0.10;;;19.90;46.20;;;;;;5011669;28;20132;-88
2022/01/22 07:24:22;;;;;;;0.80;0.00;;;19.90;46.20;;;;;;5011671;28;20156;-88
2022/01/22 07:26:40;;;;;;;0.20;0.00;;;19.90;46.20;;;;;;5010692;28;20089;-88
2022/01/22 07:29:06;;;;;;;0.32;0.00;;;19.90;46.10;;;;;;4998386;28;20533;-89
2022/01/22 07:31:31;;;;;;;0.20;0.00;;;19.90;46.10;;;;;;5010992;28;20107;-87
2022/01/22 07:33:57;;;;;;;0.73;0.05;;;20.00;46.10;;;;;;5012364;28;20053;-87
2022/01/22 07:36:22;;;;;;;0.73;0.20;;;20.00;46.10;;;;;;5011096;28;20048;-87
2022/01/22 07:38:48;;;;;;;1.23;0.10;;;21.20;46.70;;;;;;5010353;28;20092;-88
2022/01/22 07:41:13;;;;;;;0.30;0.08;;;20.00;46.00;;;;;;5005817;28;20045;-88
2022/01/22 07:43:40;;;;;;;0.32;0.00;;;20.00;46.00;;;;;;5024615;28;20530;-88
2022/01/22 07:46:07;;;;;;;0.20;0.00;;;21.40;46.80;;;;;;5029966;28;20116;-85
2022/01/22 07:48:33;;;;;;;0.60;0.10;;;20.00;46.00;;;;;;5019470;28;20103;-86
2022/01/22 07:50:59;;;;;;;0.55;0.03;;;20.00;45.90;;;;;;5030708;28;20053;-86
2022/01/22 07:53:25;;;;;;;0.68;0.08;;;20.00;46.00;;;;;;5027634;28;20048;-87
2022/01/22 07:55:51;;;;;;;0.25;0.10;;;20.00;45.90;;;;;;5044459;28;20102;-87
2022/01/22 07:58:16;;;;;;;0.20;0.00;;;20.00;45.90;;;;;;5028639;28;20041;-87
2022/01/22 08:00:42;;;;;;;0.45;0.10;;;20.40;46.10;;;;;;5045849;28;20404;-87
2022/01/22 08:03:08;;;;;;;0.60;0.13;;;20.00;45.90;;;;;;5030253;28;20048;-87
2022/01/22 08:05:35;;;;;;;0.50;0.10;;;20.00;45.80;;;;;;5030480;28;20084;-86
2022/01/22 08:08:00;;;;;;;0.30;0.10;;;20.00;45.80;;;;;;5027228;28;20056;-87
2022/01/22 08:10:26;;;;;;;0.35;0.03;;;21.00;46.40;;;;;;5052503;22;20400;-87
2022/01/22 08:12:52;;;;;;;0.60;0.10;;;20.00;45.80;;;;;;5054439;28;20044;-86
2022/01/22 08:15:18;;;;;;;1.40;0.00;;;20.00;45.90;;;;;;5053888;28;20045;-86
2022/01/22 08:17:44;;;;;;;0.47;0.10;;;20.00;45.80;;;;;;5059066;28;20041;-87
2022/01/22 08:20:12;;;;;;;0.63;0.00;;;20.00;45.80;;;;;;5054025;28;20060;-88
2022/01/22 08:22:38;;;;;;;0.77;0.03;;;20.00;45.80;;;;;;5052290;28;20055;-87
2022/01/22 08:25:04;;;;;;;0.20;0.00;;;20.00;45.80;;;;;;5050795;28;20041;-87
2022/01/22 08:29:55;;;;;;;0.60;0.10;;;20.00;45.90;;;;;;5033138;28;20099;-87
2022/01/22 08:38:07;;;;;;;0.32;0.10;;;20.00;45.80;;;;;;5009144;28;20569;-85
2022/01/22 08:40:32;;;;;;;1.80;0.20;;;20.80;46.20;;;;;;5045053;28;20508;-86
2022/01/22 08:42:58;;;;;;;0.38;0.00;;;20.00;45.80;;;;;;5052875;28;20060;-85
2022/01/22 08:45:23;;;;;;;0.43;0.05;;;20.00;45.80;;;;;;5052714;28;20480;-84
2022/01/22 08:47:49;;;;;;;1.13;0.10;;;20.00;45.80;;;;;;5052122;28;20052;-83
2022/01/22 08:50:14;;;;;;;0.43;0.10;;;20.00;45.80;;;;;;5019032;28;20045;-85
2022/01/22 08:52:40;;;;;;;0.43;0.10;;;20.00;45.80;;;;;;5037439;28;20086;-85
2022/01/22 08:55:06;;;;;;;1.00;0.20;;;20.00;45.80;;;;;;5053356;28;20695;-87
2022/01/22 08:57:32;;;;;;;1.00;0.10;;;20.00;45.90;;;;;;5057986;28;20048;-87
2022/01/22 08:59:58;;;;;;;1.05;0.10;;;20.00;45.90;;;;;;5050966;28;20136;-87
2022/01/22 09:02:23;;;;;;;0.17;0.00;;;20.00;45.90;;;;;;5052964;28;20044;-87
2022/01/22 09:04:49;;;;;;;0.25;0.00;;;20.00;45.90;;;;;;5052680;28;20055;-87
2022/01/22 09:07:14;;;;;;;0.32;0.00;;;20.00;45.90;;;;;;5053136;28;20411;-86
2022/01/22 09:09:40;;;;;;;0.30;0.00;;;20.00;45.90;;;;;;5048641;28;20056;-84
2022/01/22 09:12:07;;;;;;;1.17;0.10;;;19.90;45.80;;;;;;5065445;28;20055;-85
2022/01/22 09:14:32;;;;;;;0.20;0.00;;;20.00;45.90;;;;;;5052948;28;20068;-85
2022/01/22 09:16:59;;;;;;;0.30;0.10;;;20.00;45.90;;;;;;5055102;28;20084;-84
2022/01/22 09:19:32;;;;;;;1.05;0.10;;;20.00;45.90;;;;;;5059089;28;20048;-84
2022/01/22 09:21:58;;;;;;;0.50;0.10;;;20.00;45.90;;;;;;5079331;28;20036;-84
2022/01/22 09:24:23;;;;;;;1.15;0.03;;;20.40;46.20;;;;;;5050359;28;20037;-84
2022/01/22 09:26:52;;;;;;;0.20;0.00;;;20.00;45.90;;;;;;5060106;28;20706;-84
2022/01/22 09:29:17;;;;;;;1.60;0.10;;;20.00;45.90;;;;;;5058895;28;20082;-84
2022/01/22 09:31:44;;;;;;;0.52;0.10;;;20.00;45.90;;;;;;5061381;28;20098;-84
2022/01/22 09:34:10;;;;;;;0.32;0.10;;;20.00;45.90;;;;;;5048001;28;20067;-84
2022/01/22 09:36:38;;;;;;;0.47;0.10;;;21.60;46.80;;;;;;5044705;28;20076;-82
2022/01/22 09:39:04;;;;;;;1.27;0.13;;;20.00;46.00;;;;;;5037011;28;20061;-81
2022/01/22 09:41:30;;;;;;;4.95;0.35;;;20.00;45.90;;;;;;5038499;28;20116;-81
2022/01/22 09:43:55;;;;;;;3.75;0.17;;;20.00;46.20;;;;;;4990142;28;20050;-80
2022/01/22 09:46:21;;;;;;;2.28;0.10;;;20.00;46.40;;;;;;4986696;28;20510;-80
2022/01/22 09:48:47;;;;;;;0.82;0.10;;;20.00;46.40;;;;;;4988384;28;20045;-79
2022/01/22 09:51:13;;;;;;;1.10;0.10;;;20.00;46.40;;;;;;4989679;28;20061;-80
2022/01/22 09:53:43;;;;;;;3.83;0.30;;;20.00;46.40;;;;;;4991614;28;20046;-79
2022/01/22 09:56:08;;;;;;;3.95;0.22;;;20.00;47.10;;;;;;4990901;28;20099;-79
2022/01/22 09:58:34;;;;;;;3.53;0.20;;;20.00;47.20;;;;;;4991882;28;20053;-80
2022/01/22 10:01:18;;;;;;;1.05;0.10;;;20.00;46.60;;;;;;4990581;28;20053;-81
2022/01/22 10:03:44;;;;;;;1.95;0.20;;;20.00;46.50;;;;;;4991966;28;20065;-82
2022/01/22 10:06:17;;;;;;;2.92;0.25;;;20.00;46.60;;;;;;4992207;28;20165;-81
2022/01/22 10:08:42;;;;;;;2.70;0.28;;;20.00;46.60;;;;;;4990967;28;20603;-84
2022/01/22 10:11:27;;;;;;;2.05;0.30;;;20.00;46.60;;;;;;4988114;28;20096;-84
2022/01/22 10:13:56;;;;;;;2.55;0.10;;;20.00;46.60;;;;;;4988171;28;20045;-84
2022/01/22 10:16:29;;;;;;;1.17;0.10;;;21.10;47.20;;;;;;4982452;28;20042;-84
2022/01/22 10:19:14;;;;;;;2.85;0.20;;;20.00;46.60;;;;;;4990735;28;20536;-83
2022/01/22 10:21:42;;;;;;;4.70;0.22;;;20.00;46.70;;;;;;4977543;28;20065;-88
2022/01/22 10:24:36;;;;;;;4.97;0.20;;;20.00;46.60;;;;;;4991808;28;20050;-85
2022/01/22 10:27:33;;;;;;;0.52;0.15;;;20.00;46.60;;;;;;4971685;28;20494;-88
2022/01/22 10:30:15;;;;;;;6.20;1.23;;;20.00;46.60;;;;;;4972278;28;20052;-86
2022/01/22 10:32:59;;;;;;;187.95;56.28;;;20.00;46.60;;;;;;4983823;28;20050;-87
2022/01/22 10:35:26;;;;;;;131.13;38.13;;;20.00;46.50;;;;;;4990578;28;20069;-85
2022/01/22 10:37:56;;;;;;;121.80;37.85;;;20.00;46.50;;;;;;5010342;28;20045;-87
2022/01/22 10:40:29;;;;;;;115.60;35.60;;;20.00;46.40;;;;;;5010981;28;20124;-85
2022/01/22 10:43:28;;;;;;;100.50;31.95;;;20.00;46.40;;;;;;5019812;28;20055;-87
2022/01/22 10:46:10;;;;;;;84.80;25.40;;;20.00;46.40;;;;;;5030336;28;20122;-88
2022/01/22 10:48:38;;;;;;;77.95;25.65;;;20.00;46.30;;;;;;5030029;28;20083;-86
2022/01/22 10:51:14;;;;;;;64.18;20.30;;;21.10;46.90;;;;;;5048173;28;20052;-88
2022/01/22 10:53:50;;;;;;;50.38;16.02;;;20.00;46.30;;;;;;5032576;28;20141;-89
2022/01/22 10:56:19;;;;;;;41.53;12.07;;;20.00;46.20;;;;;;5049959;28;20084;-89
2022/01/22 10:58:57;;;;;;;38.80;12.23;;;20.00;46.10;;;;;;5027907;28;20049;-87
2022/01/22 11:01:28;;;;;;;37.08;10.45;;;20.00;46.10;;;;;;5028877;28;20041;-88
2022/01/22 11:04:04;;;;;;;32.58;10.82;;;20.10;46.00;;;;;;5014969;28;20413;-84
2022/01/22 11:06:30;;;;;;;40.95;11.95;;;20.00;46.10;;;;;;5010463;28;20128;-85
2022/01/22 11:08:55;;;;;;;40.17;10.98;;;20.10;46.10;;;;;;5011085;28;20659;-84
2022/01/22 11:11:22;;;;;;;36.63;10.93;;;20.10;46.00;;;;;;5012185;28;20572;-85
2022/01/22 11:13:48;;;;;;;32.47;11.15;;;20.10;46.00;;;;;;5011097;28;20072;-85
2022/01/22 11:16:15;;;;;;;31.63;10.40;;;20.10;46.00;;;;;;5011732;28;20030;-85
2022/01/22 11:18:43;;;;;;;35.00;10.75;;;20.10;46.00;;;;;;4995145;28;20053;-87
2022/01/22 11:21:08;;;;;;;28.58;8.82;;;20.10;46.00;;;;;;5012389;28;20120;-85
2022/01/22 11:23:34;;;;;;;34.67;9.15;;;21.10;47.20;;;;;;4977885;28;20160;-85
2022/01/22 11:26:01;;;;;;;26.77;9.05;;;20.00;45.90;;;;;;4977674;28;20046;-85
2022/01/22 11:28:26;;;;;;;31.70;8.38;;;20.10;45.90;;;;;;4994456;28;20100;-85
2022/01/22 11:30:52;;;;;;;28.00;8.38;;;20.10;46.00;;;;;;4993116;28;20041;-86
2022/01/22 11:33:17;;;;;;;29.48;8.95;;;20.10;46.00;;;;;;4978789;28;20042;-86
2022/01/22 11:35:53;;;;;;;22.52;8.07;;;20.10;46.00;;;;;;4994746;28;20045;-86
2022/01/22 11:38:26;;;;;;;24.92;7.88;;;20.10;46.00;;;;;;4993976;28;20061;-86
2022/01/22 11:41:18;;;;;;;24.30;7.50;;;20.10;45.90;;;;;;5011027;28;20389;-85
2022/01/22 11:44:12;;;;;;;24.88;7.95;;;20.10;46.00;;;;;;5011492;28;20790;-86
2022/01/22 11:46:41;;;;;;;27.63;7.53;;;20.10;45.90;;;;;;4998463;28;20039;-86
2022/01/22 11:49:13;;;;;;;23.98;7.47;;;20.10;46.00;;;;;;5013995;28;20054;-86
2022/01/22 11:51:40;;;;;;;25.08;7.55;;;20.10;46.00;;;;;;5012256;28;20056;-86
2022/01/22 11:54:05;;;;;;;21.90;7.28;;;20.90;46.40;;;;;;5014849;28;20124;-86
2022/01/22 11:56:40;;;;;;;23.30;6.97;;;20.10;46.00;;;;;;5011549;28;20164;-86
2022/01/22 11:59:12;;;;;;;18.65;6.25;;;20.00;45.90;;;;;;5013361;28;20041;-86
2022/01/22 12:01:38;;;;;;;21.83;6.57;;;20.10;46.00;;;;;;5013969;28;20056;-86
2022/01/22 12:04:04;;;;;;;15.00;5.32;;;20.10;46.00;;;;;;5014491;28;20057;-86
2022/01/22 12:06:29;;;;;;;18.95;5.97;;;20.10;46.00;;;;;;5013762;28;20453;-87
2022/01/22 12:09:09;;;;;;;16.70;5.57;;;20.10;46.00;;;;;;5006141;28;20049;-86
2022/01/22 12:14:50;;;;;;;17.15;6.75;;;20.10;46.00;;;;;;5012596;28;20050;-86
2022/01/22 12:17:29;;;;;;;17.40;5.68;;;20.10;46.00;;;;;;5014463;28;20654;-85
2022/01/22 12:22:35;;;;;;;16.40;5.47;;;20.10;46.70;;;;;;4997399;28;404641;-84
2022/01/22 12:25:03;;;;;;;17.48;5.25;;;20.10;46.00;;;;;;5013714;28;20056;-81
2022/01/22 12:27:41;;;;;;;19.10;5.65;;;20.10;46.00;;;;;;5012665;28;20099;-81
2022/01/22 12:30:09;;;;;;;12.85;4.28;;;20.10;46.00;;;;;;5013240;28;20456;-81
2022/01/22 12:40:08;;;;;;;12.45;4.32;;;19.10;45.50;;;;;;5012386;28;20057;-86
2022/01/22 12:46:21;;;;;;;13.60;4.40;;;20.10;46.00;;;;;;4892198;29;20052;-88
2022/01/22 12:52:51;;;;;;;12.13;3.22;;;19.70;45.80;;;;;;4993646;28;20041;-88
2022/01/22 12:55:26;;;;;;;12.18;3.40;;;20.00;46.30;;;;;;4975865;28;20430;-88
2022/01/22 12:58:27;;;;;;;10.10;2.60;;;20.10;46.20;;;;;;5001566;28;20041;-87
2022/01/22 13:01:29;;;;;;;11.05;3.35;;;20.10;46.30;;;;;;4989532;28;20552;-86
2022/01/22 13:03:55;;;;;;;11.77;2.78;;;20.10;46.30;;;;;;4981607;28;20050;-88
2022/01/22 13:06:23;;;;;;;10.25;3.00;;;20.00;46.40;;;;;;4979679;28;20346;-88
2022/01/22 13:08:48;;;;;;;10.15;3.03;;;20.00;46.50;;;;;;4999044;28;20045;-93
2022/01/22 13:11:18;;;;;;;12.18;3.30;;;20.00;46.60;;;;;;4996895;28;20049;-92
2022/01/22 13:13:49;;;;;;;11.30;3.40;;;20.00;46.60;;;;;;4985800;28;20475;-87
2022/01/22 13:16:17;;;;;;;11.25;2.65;;;20.00;46.70;;;;;;5002205;28;20054;-89
2022/01/22 13:19:15;;;;;;;10.40;2.53;;;20.00;46.70;;;;;;5005843;28;20128;-90
2022/01/22 13:22:10;;;;;;;11.40;3.00;;;20.00;46.80;;;;;;4972303;28;20108;-87
2022/01/22 13:24:36;;;;;;;7.82;2.50;;;20.40;47.00;;;;;;5004260;28;20062;-88
2022/01/22 13:27:10;;;;;;;9.35;2.25;;;20.00;46.80;;;;;;5015042;28;20041;-88
2022/01/22 13:29:44;;;;;;;9.73;2.72;;;20.00;46.80;;;;;;5006377;28;20042;-87
2022/01/22 13:50:15;;;;;;;6.28;1.80;;;20.20;47.80;;;;;;4940890;28;20054;-89
2022/01/22 13:53:58;;;;;;;8.57;2.20;;;19.40;46.80;;;;;;4935118;28;20050;-89
2022/01/22 13:56:53;;;;;;;5.43;1.50;;;20.20;47.30;;;;;;4832770;29;20053;-90
2022/01/22 13:59:34;;;;;;;6.65;1.60;;;19.20;46.80;;;;;;4864122;29;20060;-90
2022/01/22 14:02:16;;;;;;;6.68;2.00;;;20.20;47.50;;;;;;4988829;28;20072;-91
2022/01/22 14:04:52;;;;;;;8.38;1.77;;;20.10;47.10;;;;;;4651838;28;10000765;-90
2022/01/22 14:07:30;;;;;;;6.32;1.60;;;20.20;48.00;;;;;;5010877;28;20052;-91
2022/01/22 14:10:07;;;;;;;6.25;1.55;;;20.20;47.20;;;;;;5011828;28;20091;-92
2022/01/22 14:12:59;;;;;;;6.57;1.75;;;21.70;48.00;;;;;;5011454;28;20061;-89
2022/01/22 14:15:30;;;;;;;9.30;1.75;;;19.80;47.10;;;;;;5006373;28;20451;-91
2022/01/22 14:18:19;;;;;;;8.45;1.63;;;20.20;47.20;;;;;;5011181;28;20431;-94
2022/01/22 14:20:50;;;;;;;7.38;1.42;;;20.20;47.30;;;;;;5011379;28;20037;-96
2022/01/22 14:23:25;;;;;;;6.75;1.27;;;20.20;47.30;;;;;;5006889;28;20488;-93
2022/01/22 14:26:25;;;;;;;6.10;1.25;;;20.20;47.40;;;;;;4996092;28;20046;-94
2022/01/22 14:28:58;;;;;;;6.15;1.40;;;20.20;47.40;;;;;;5010117;28;20092;-87
2022/01/22 14:31:29;;;;;;;4.63;1.10;;;20.30;47.30;;;;;;5010907;28;20121;-87
2022/01/22 14:33:59;;;;;;;4.75;1.42;;;20.30;47.40;;;;;;5008618;28;20457;-89
2022/01/22 14:36:41;;;;;;;3.65;0.98;;;20.30;47.40;;;;;;5010955;28;20930;-88
2022/01/22 14:39:14;;;;;;;6.50;1.95;;;20.30;47.40;;;;;;5028608;28;20056;-87
2022/01/22 14:44:34;;;;;;;5.68;1.60;;;20.40;47.40;;;;;;4972042;28;20050;-87
2022/01/22 14:47:04;;;;;;;4.97;1.10;;;20.40;47.30;;;;;;4985169;28;20532;-89
2022/01/22 14:49:38;;;;;;;5.93;1.30;;;20.40;47.40;;;;;;4991035;28;20620;-89
2022/01/22 14:52:04;;;;;;;4.85;1.17;;;20.40;47.30;;;;;;4991102;28;20120;-90
2022/01/22 14:54:35;;;;;;;3.88;1.10;;;20.50;47.40;;;;;;4983680;28;20045;-87
2022/01/22 14:57:05;;;;;;;3.63;0.88;;;20.50;47.50;;;;;;5029999;28;20047;-88
2022/01/22 14:59:33;;;;;;;4.32;1.15;;;20.50;47.50;;;;;;5024392;28;20063;-90
2022/01/22 15:01:59;;;;;;;5.22;1.10;;;20.50;47.50;;;;;;5028842;28;20057;-89
2022/01/22 15:04:26;;;;;;;3.63;0.90;;;20.50;47.60;;;;;;5029798;28;20045;-89